PATK/TKA METAR and TAF weather

Enter ICAO airport designator
Station Type Date Time Source
PATK METAR 2022/05/26 04:53 UTC NOAA

PATK 260453Z AUTO 19004KT 10SM OVC120 19/01 A2987 RMK AO2 SLP115 T01890011 TSNO


Station Type Date Time Source
PATK Decoded METAR 2022/05/26 04:53 UTC NOAA

TALKEETNA AIRPORT, AK, United States (PATK) 62-19N 150-06W 109M
May 26, 2022 - 12:53 AM EDT / 2022.05.26 0453 UTC
Wind: from the S (190 degrees) at 5 MPH (4 KT):0
Visibility: 10 mile(s):0
Sky conditions: overcast
Temperature: 66.0 F (18.9 C)
Dew Point: 34.0 F (1.1 C)
Relative Humidity: 30%
Pressure (altimeter): 29.87 in. Hg (1011 hPa)
ob: PATK 260453Z AUTO 19004KT 10SM OVC120 19/01 A2987 RMK AO2 SLP115 T01890011 TSNO
cycle: 5

Station Type Date Time Source
PATK TAF 2022/05/26 06:36 UTC NOAA

TAF PATK 260534Z 2606/2706 VRB05KT P6SM SKC

Example: see airport list